Time;durP1;ratioP1;P1;durP2;ratioP2;P2;SDS_P1;SDS_P2;PMS_P1;PMS_P2;Temp;Humidity;BMP_temperature;BMP_pressure;BME280_temperature;BME280_humidity;BME280_pressure;Samples;Min_cycle;Max_cycle;Signal;HPM_P1;HPM_P2
2022/10/09 00:01:49;;;;;;;;;;;;;;;10.40;61.06;102127.69;5008738;28;20229;-77
2022/10/09 00:04:14;;;;;;;;;;;;;;;10.40;60.85;102127.69;5011723;28;19988;-77
2022/10/09 00:06:39;;;;;;;;;;;;;;;10.38;61.51;102132.03;5009461;28;19929;-77
2022/10/09 00:09:05;;;;;;;;;;;;;;;10.33;61.42;102128.56;5011204;28;19936;-77
2022/10/09 00:11:31;;;;;;;;;;;;;;;10.32;61.19;102125.97;5012108;28;19921;-77
2022/10/09 00:13:56;;;;;;;;;;;;;;;10.23;61.47;102132.00;5017207;28;20370;-77
2022/10/09 00:16:23;;;;;;;;;;;;;;;10.31;60.72;102125.13;5010928;28;19991;-77
2022/10/09 00:18:48;;;;;;;;;;;;;;;10.22;60.98;102124.22;5013867;28;19926;-77
2022/10/09 00:21:21;;;;;;;;;;;;;;;10.20;61.32;102129.41;5011783;28;19921;-77
2022/10/09 00:23:47;;;;;;;;;;;;;;;10.27;61.11;102135.47;5009033;28;19937;-77
2022/10/09 00:26:13;;;;;;;;;;;;;;;10.30;60.92;102127.69;4997185;28;20385;-77
2022/10/09 00:28:38;;;;;;;;;;;;;;;10.30;60.42;102123.38;5012921;28;19922;-77
2022/10/09 00:31:04;;;;;;;;;;;;;;;10.37;60.23;102124.25;5000161;28;19951;-77
2022/10/09 00:33:30;;;;;;;;;;;;;;;10.31;60.30;102127.72;5008961;28;19922;-77
2022/10/09 00:35:55;;;;;;;;;;;;;;;10.35;60.14;102131.16;5011271;28;20426;-77
2022/10/09 00:38:20;;;;;;;;;;;;;;;10.24;60.72;102128.56;5009335;28;19921;-77
2022/10/09 00:40:45;;;;;;;;;;;;;;;10.21;60.59;102127.69;5009467;28;19919;-77
2022/10/09 00:43:15;;;;;;;;;;;;;;;10.20;60.86;102123.34;5010236;28;19921;-77
2022/10/09 00:45:43;;;;;;;;;;;;;;;10.20;60.92;102125.94;5006421;28;20157;-77
2022/10/09 00:48:10;;;;;;;;;;;;;;;10.15;61.14;102120.75;5011639;28;19968;-77
2022/10/09 00:50:48;;;;;;;;;;;;;;;10.10;60.86;102121.59;5015546;28;19917;-77
2022/10/09 00:53:14;;;;;;;;;;;;;;;10.29;60.94;102123.34;5007389;28;20503;-77
2022/10/09 00:55:40;;;;;;;;;;;;;;;10.14;60.81;102120.72;5010171;28;20494;-77
2022/10/09 00:58:07;;;;;;;;;;;;;;;10.25;60.86;102116.44;5007195;28;20021;-77
2022/10/09 01:00:32;;;;;;;;;;;;;;;10.22;60.70;102125.09;4992054;28;20068;-77
2022/10/09 01:02:57;;;;;;;;;;;;;;;10.14;61.14;102128.50;5009278;28;20024;-77
2022/10/09 01:05:27;;;;;;;;;;;;;;;10.12;60.59;102117.28;5022265;28;19925;-77
2022/10/09 01:07:55;;;;;;;;;;;;;;;10.16;61.01;102124.22;5009528;28;19925;-77
2022/10/09 01:10:26;;;;;;;;;;;;;;;10.20;60.50;102124.22;5012807;28;20295;-77
2022/10/09 01:13:02;;;;;;;;;;;;;;;10.18;60.03;102125.94;5014779;28;19929;-77
2022/10/09 01:15:34;;;;;;;;;;;;;;;10.21;60.46;102130.28;5015537;28;19917;-77
2022/10/09 01:18:17;;;;;;;;;;;;;;;10.05;60.35;102131.97;5014449;28;19918;-77
2022/10/09 01:20:55;;;;;;;;;;;;;;;10.01;60.50;102134.56;5013451;28;20247;-77
2022/10/09 01:23:26;;;;;;;;;;;;;;;10.02;60.46;102133.72;5013816;28;19925;-77
2022/10/09 01:26:10;;;;;;;;;;;;;;;9.89;60.78;102133.66;5009038;28;20298;-77
2022/10/09 01:28:37;;;;;;;;;;;;;;;9.87;60.42;102127.53;5003753;28;19921;-77
2022/10/09 01:31:05;;;;;;;;;;;;;;;9.93;60.53;102126.72;5007569;28;19968;-77
2022/10/09 01:33:31;;;;;;;;;;;;;;;9.89;60.41;102120.69;5016650;28;19921;-77
2022/10/09 01:35:57;;;;;;;;;;;;;;;9.84;60.00;102119.75;5011755;28;19921;-77
2022/10/09 01:38:23;;;;;;;;;;;;;;;9.83;60.42;102114.56;5008039;28;19936;-77
2022/10/09 01:40:50;;;;;;;;;;;;;;;9.82;60.56;102113.69;5008953;28;19921;-77
2022/10/09 01:43:16;;;;;;;;;;;;;;;9.87;60.19;102111.09;5014256;28;20354;-77
2022/10/09 01:45:43;;;;;;;;;;;;;;;9.95;60.24;102105.97;5014617;28;19917;-77
2022/10/09 01:48:11;;;;;;;;;;;;;;;9.83;60.52;102114.56;5011209;28;19976;-77
2022/10/09 01:50:39;;;;;;;;;;;;;;;9.82;60.49;102103.31;5010911;28;19924;-77
2022/10/09 01:53:10;;;;;;;;;;;;;;;9.85;60.56;102108.50;5004608;28;19921;-77
2022/10/09 01:55:41;;;;;;;;;;;;;;;9.90;60.29;102101.63;5009263;28;20001;-77
2022/10/09 01:58:16;;;;;;;;;;;;;;;9.81;60.50;102095.53;5009229;28;20008;-77
2022/10/09 02:00:45;;;;;;;;;;;;;;;9.78;60.33;102098.13;5010248;28;19925;-77
2022/10/09 02:03:12;;;;;;;;;;;;;;;9.78;60.92;102093.78;5004631;28;19918;-77
2022/10/09 02:05:39;;;;;;;;;;;;;;;9.85;59.96;102103.31;5008368;28;19917;-77
2022/10/09 02:08:04;;;;;;;;;;;;;;;9.84;60.65;102098.97;5009307;28;19933;-77
2022/10/09 02:10:30;;;;;;;;;;;;;;;9.74;60.56;102098.97;5003209;28;19926;-77
2022/10/09 02:12:57;;;;;;;;;;;;;;;9.76;60.09;102105.00;5011131;28;19917;-77
2022/10/09 02:15:26;;;;;;;;;;;;;;;9.66;60.90;102104.09;5013090;28;20379;-77
2022/10/09 02:17:53;;;;;;;;;;;;;;;9.68;60.80;102102.41;5014944;28;19991;-77
2022/10/09 02:20:23;;;;;;;;;;;;;;;9.66;60.64;102103.25;5014720;28;20004;-77
2022/10/09 02:22:50;;;;;;;;;;;;;;;9.64;60.70;102108.44;5007005;28;20087;-77
2022/10/09 02:25:16;;;;;;;;;;;;;;;9.64;60.60;102105.84;5007329;28;19925;-77
2022/10/09 02:27:41;;;;;;;;;;;;;;;9.64;60.53;102107.56;5008724;28;19928;-77
2022/10/09 02:30:07;;;;;;;;;;;;;;;9.72;60.19;102105.88;5007722;28;19921;-77
2022/10/09 02:32:33;;;;;;;;;;;;;;;9.78;59.62;102100.72;5008732;28;20048;-77
2022/10/09 02:34:58;;;;;;;;;;;;;;;9.57;60.42;102092.84;5007704;28;19926;-77
2022/10/09 02:37:23;;;;;;;;;;;;;;;9.71;60.34;102098.94;5006880;28;20334;-77
2022/10/09 02:39:49;;;;;;;;;;;;;;;9.74;60.15;102092.06;5007444;28;19929;-77
2022/10/09 02:42:14;;;;;;;;;;;;;;;9.71;60.17;102093.75;4994945;28;19929;-77
2022/10/09 02:44:39;;;;;;;;;;;;;;;9.80;59.96;102089.47;5013005;28;19921;-77
2022/10/09 02:47:05;;;;;;;;;;;;;;;9.71;60.67;102104.13;5013998;28;19925;-77
2022/10/09 02:49:30;;;;;;;;;;;;;;;9.73;60.17;102098.09;5012321;28;19917;-77
2022/10/09 02:51:55;;;;;;;;;;;;;;;9.61;59.70;102098.03;5005707;28;20530;-77
2022/10/09 02:54:20;;;;;;;;;;;;;;;9.38;60.74;102101.38;5006233;28;20518;-77
2022/10/09 02:56:46;;;;;;;;;;;;;;;9.39;60.52;102096.22;4995505;28;19924;-76
2022/10/09 02:59:11;;;;;;;;;;;;;;;9.49;59.81;102095.38;5007058;28;19928;-77
2022/10/09 03:01:36;;;;;;;;;;;;;;;9.54;60.25;102096.31;4994631;28;19925;-77
2022/10/09 03:04:02;;;;;;;;;;;;;;;9.43;60.43;102100.53;5006991;28;19971;-77
2022/10/09 03:06:27;;;;;;;;;;;;;;;9.47;60.21;102091.94;5008374;28;19944;-77
2022/10/09 03:08:53;;;;;;;;;;;;;;;9.54;60.04;102087.66;5009424;28;19922;-77
2022/10/09 03:11:20;;;;;;;;;;;;;;;9.51;60.44;102090.22;5009556;28;19928;-77
2022/10/09 03:13:45;;;;;;;;;;;;;;;9.46;60.00;102097.97;5008451;28;20377;-77
2022/10/09 03:16:10;;;;;;;;;;;;;;;9.48;59.03;102090.22;5012027;28;19960;-77
2022/10/09 03:18:36;;;;;;;;;;;;;;;9.42;60.08;102095.38;5017615;28;19971;-77
2022/10/09 03:21:08;;;;;;;;;;;;;;;9.46;59.88;102095.38;5014112;28;20374;-77
2022/10/09 03:23:34;;;;;;;;;;;;;;;9.36;59.68;102091.03;5010888;28;20402;-77
2022/10/09 03:26:00;;;;;;;;;;;;;;;9.45;59.68;102085.00;5009356;28;19960;-77
2022/10/09 03:28:26;;;;;;;;;;;;;;;9.40;59.55;102084.97;5011468;28;20425;-77
2022/10/09 03:30:51;;;;;;;;;;;;;;;9.38;59.30;102081.50;5011635;28;19921;-77
2022/10/09 03:33:17;;;;;;;;;;;;;;;9.46;59.89;102084.13;5011602;28;19943;-77
2022/10/09 03:35:43;;;;;;;;;;;;;;;9.36;59.45;102084.09;5012449;28;20286;-77
2022/10/09 03:38:09;;;;;;;;;;;;;;;9.31;59.47;102078.03;5011589;28;19925;-77
2022/10/09 03:40:34;;;;;;;;;;;;;;;9.27;60.24;102076.28;5012365;28;19932;-77
2022/10/09 03:42:59;;;;;;;;;;;;;;;9.35;59.10;102079.78;5012505;28;19928;-77
2022/10/09 03:45:24;;;;;;;;;;;;;;;9.19;59.46;102080.53;5014284;28;20513;-76
2022/10/09 03:47:50;;;;;;;;;;;;;;;9.19;60.07;102083.13;5015985;28;19921;-77
2022/10/09 03:50:15;;;;;;;;;;;;;;;9.26;59.49;102074.53;5020105;28;19986;-77
2022/10/09 03:52:41;;;;;;;;;;;;;;;9.25;59.53;102083.16;5009437;28;19972;-77
2022/10/09 03:55:06;;;;;;;;;;;;;;;9.17;60.08;102091.78;5006864;28;19925;-77
2022/10/09 03:57:32;;;;;;;;;;;;;;;9.21;59.77;102089.22;5011774;28;19921;-77
2022/10/09 03:59:57;;;;;;;;;;;;;;;9.22;59.36;102083.16;5013428;28;20654;-77
2022/10/09 04:02:22;;;;;;;;;;;;;;;9.16;59.68;102093.50;5009886;28;19922;-77
2022/10/09 04:04:48;;;;;;;;;;;;;;;9.07;59.62;102082.19;5013668;28;19924;-77
2022/10/09 04:07:13;;;;;;;;;;;;;;;9.11;60.02;102079.66;5008944;28;19984;-77
2022/10/09 04:09:38;;;;;;;;;;;;;;;9.00;59.82;102081.31;5006198;28;19918;-77
2022/10/09 04:12:03;;;;;;;;;;;;;;;9.19;60.14;102077.94;5005554;28;20012;-77
2022/10/09 04:14:29;;;;;;;;;;;;;;;9.21;59.44;102072.78;5013462;28;19918;-77
2022/10/09 04:16:54;;;;;;;;;;;;;;;9.19;59.43;102070.16;5012074;28;19972;-78
2022/10/09 04:19:19;;;;;;;;;;;;;;;9.25;59.65;102070.22;5009187;28;20349;-77
2022/10/09 04:21:44;;;;;;;;;;;;;;;9.27;59.43;102068.50;5013956;28;19921;-77
2022/10/09 04:24:10;;;;;;;;;;;;;;;9.24;59.51;102063.31;5011863;28;19921;-74
2022/10/09 04:26:35;;;;;;;;;;;;;;;9.30;59.51;102059.88;4998529;28;19960;-77
2022/10/09 04:29:00;;;;;;;;;;;;;;;9.14;59.44;102056.31;5011577;28;19921;-77
2022/10/09 04:31:26;;;;;;;;;;;;;;;9.09;59.77;102055.44;5009161;28;19936;-77
2022/10/09 04:33:53;;;;;;;;;;;;;;;9.16;60.22;102049.41;5012370;28;20314;-77
2022/10/09 04:36:18;;;;;;;;;;;;;;;9.03;59.99;102060.59;5013141;28;19971;-77
2022/10/09 04:38:43;;;;;;;;;;;;;;;9.07;59.45;102054.56;5010779;28;20325;-77
2022/10/09 04:41:09;;;;;;;;;;;;;;;9.02;60.15;102063.16;5009654;28;19949;-77
2022/10/09 04:43:34;;;;;;;;;;;;;;;8.99;60.06;102055.38;5010205;28;19999;-77
2022/10/09 04:46:06;;;;;;;;;;;;;;;8.95;60.35;102064.00;5010885;28;19917;-77
2022/10/09 04:48:36;;;;;;;;;;;;;;;9.00;60.48;102063.16;5012611;28;20383;-77
2022/10/09 04:51:02;;;;;;;;;;;;;;;9.08;59.41;102056.28;5009066;28;19920;-77
2022/10/09 04:53:28;;;;;;;;;;;;;;;8.92;60.45;102051.88;5005387;28;19923;-77
2022/10/09 04:55:53;;;;;;;;;;;;;;;8.98;60.71;102064.03;5010269;28;20020;-77
2022/10/09 04:58:18;;;;;;;;;;;;;;;8.98;60.53;102062.28;5006834;28;20452;-77
2022/10/09 05:00:44;;;;;;;;;;;;;;;8.95;59.68;102054.47;5008139;28;19918;-77
2022/10/09 05:03:10;;;;;;;;;;;;;;;8.85;60.15;102059.59;5010119;28;19924;-77
2022/10/09 05:05:35;;;;;;;;;;;;;;;8.80;60.17;102055.25;5011903;28;19925;-77
2022/10/09 05:08:00;;;;;;;;;;;;;;;8.84;60.14;102058.72;5010815;28;20292;-77
2022/10/09 05:10:25;;;;;;;;;;;;;;;8.89;59.97;102057.03;5003291;28;19921;-77
2022/10/09 05:12:51;;;;;;;;;;;;;;;8.93;60.50;102051.03;5012885;28;19917;-77
2022/10/09 05:15:17;;;;;;;;;;;;;;;8.88;61.07;102050.13;5011384;28;19917;-77
2022/10/09 05:17:42;;;;;;;;;;;;;;;8.93;61.18;102047.56;5009723;28;19921;-77
2022/10/09 05:20:08;;;;;;;;;;;;;;;8.78;61.02;102051.78;5008540;28;19928;-77
2022/10/09 05:22:33;;;;;;;;;;;;;;;8.83;60.38;102046.63;5006760;28;19971;-77
2022/10/09 05:24:58;;;;;;;;;;;;;;;8.74;60.66;102052.63;5005952;28;19928;-77
2022/10/09 05:27:24;;;;;;;;;;;;;;;8.75;60.96;102046.59;5006229;28;19941;-77
2022/10/09 05:29:49;;;;;;;;;;;;;;;8.85;60.83;102042.34;5009837;28;19929;-77
2022/10/09 05:32:14;;;;;;;;;;;;;;;8.88;60.59;102046.66;5011973;28;20329;-77
2022/10/09 05:34:40;;;;;;;;;;;;;;;8.91;60.82;102050.16;5011406;28;20009;-77
2022/10/09 05:37:05;;;;;;;;;;;;;;;8.88;60.17;102051.84;5003896;28;19917;-77
2022/10/09 05:39:31;;;;;;;;;;;;;;;8.85;60.42;102060.47;5009439;28;19917;-77
2022/10/09 05:41:56;;;;;;;;;;;;;;;8.77;61.20;102056.97;5007635;28;20016;-77
2022/10/09 05:44:22;;;;;;;;;;;;;;;8.91;60.75;102055.34;5008171;28;20444;-77
2022/10/09 05:46:47;;;;;;;;;;;;;;;8.91;61.26;102054.47;5007978;28;19933;-77
2022/10/09 05:49:12;;;;;;;;;;;;;;;8.96;61.15;102056.22;5009399;28;20395;-77
2022/10/09 05:51:38;;;;;;;;;;;;;;;8.94;61.52;102055.34;5009846;28;20969;-77
2022/10/09 05:54:04;;;;;;;;;;;;;;;9.03;62.04;102054.53;5006261;28;20302;-77
2022/10/09 05:56:30;;;;;;;;;;;;;;;9.05;61.84;102048.50;5009608;28;19913;-77
2022/10/09 05:58:57;;;;;;;;;;;;;;;9.13;62.12;102048.53;5012342;28;20474;-77
2022/10/09 06:01:23;;;;;;;;;;;;;;;9.09;62.78;102052.84;5007874;28;20306;-77
2022/10/09 06:03:53;;;;;;;;;;;;;;;9.16;63.15;102056.31;5009924;28;20020;-78
2022/10/09 06:06:19;;;;;;;;;;;;;;;9.24;63.30;102052.06;5006676;28;19929;-78
2022/10/09 06:08:44;;;;;;;;;;;;;;;9.06;64.23;102058.03;5007505;28;19925;-77
2022/10/09 06:11:13;;;;;;;;;;;;;;;9.06;64.09;102050.25;5004227;28;20302;-78
2022/10/09 06:13:38;;;;;;;;;;;;;;;9.10;63.90;102053.69;5012527;28;20285;-77
2022/10/09 06:16:03;;;;;;;;;;;;;;;9.21;63.41;102052.06;5010538;28;20008;-77
2022/10/09 06:18:29;;;;;;;;;;;;;;;9.14;63.59;102045.97;5012307;28;19929;-77
2022/10/09 06:20:55;;;;;;;;;;;;;;;9.23;62.86;102053.78;5008096;28;19925;-77
2022/10/09 06:23:20;;;;;;;;;;;;;;;9.06;63.06;102049.38;5007781;28;20371;-77
2022/10/09 06:25:49;;;;;;;;;;;;;;;8.97;62.88;102052.78;5007711;28;20374;-77
2022/10/09 06:28:14;;;;;;;;;;;;;;;9.06;63.00;102049.38;5006030;28;19926;-77
2022/10/09 06:30:40;;;;;;;;;;;;;;;9.08;62.64;102053.69;5007670;28;19921;-78
2022/10/09 06:33:05;;;;;;;;;;;;;;;9.14;62.60;102051.16;5006304;28;19948;-77
2022/10/09 06:35:33;;;;;;;;;;;;;;;9.19;62.61;102043.38;5012129;28;19918;-77
2022/10/09 06:37:58;;;;;;;;;;;;;;;9.19;62.38;102049.44;5009500;28;19917;-77
2022/10/09 06:40:23;;;;;;;;;;;;;;;9.23;62.28;102050.31;5009674;28;19929;-77
2022/10/09 06:42:48;;;;;;;;;;;;;;;9.25;62.34;102048.59;5008010;28;20334;-77
2022/10/09 06:45:14;;;;;;;;;;;;;;;9.31;62.18;102048.63;5008440;28;19921;-77
2022/10/09 06:47:39;;;;;;;;;;;;;;;9.19;62.47;102052.03;5009242;28;19972;-77
2022/10/09 06:50:05;;;;;;;;;;;;;;;9.23;62.85;102047.72;5013362;28;19968;-77
2022/10/09 06:52:30;;;;;;;;;;;;;;;9.29;62.49;102050.34;5017060;28;19921;-77
2022/10/09 06:54:55;;;;;;;;;;;;;;;9.18;62.64;102049.44;5011826;28;19921;-77
2022/10/09 06:57:21;;;;;;;;;;;;;;;9.20;62.87;102058.94;5010580;28;19936;-77
2022/10/09 06:59:48;;;;;;;;;;;;;;;9.27;62.98;102054.66;5011557;28;20545;-77
2022/10/09 07:02:14;;;;;;;;;;;;;;;9.24;62.88;102060.72;5012444;28;20438;-77
2022/10/09 07:04:39;;;;;;;;;;;;;;;9.40;63.14;102060.75;5012667;28;19964;-77
2022/10/09 07:07:04;;;;;;;;;;;;;;;9.36;63.56;102065.09;5012242;28;20378;-77
2022/10/09 07:09:30;;;;;;;;;;;;;;;9.21;64.33;102072.78;5015472;28;19924;-77
2022/10/09 07:11:55;;;;;;;;;;;;;;;9.26;63.99;102068.50;5011997;28;19976;-76
2022/10/09 07:14:20;;;;;;;;;;;;;;;9.28;64.24;102070.22;5001336;28;19933;-77
2022/10/09 07:16:47;;;;;;;;;;;;;;;9.35;64.04;102069.41;5009616;28;19930;-77
2022/10/09 07:19:13;;;;;;;;;;;;;;;9.36;64.25;102062.50;5014591;28;19984;-77
2022/10/09 07:21:40;;;;;;;;;;;;;;;9.36;64.12;102060.75;5019561;28;20371;-77
2022/10/09 07:24:05;;;;;;;;;;;;;;;9.42;64.35;102065.13;5010044;28;19972;-77
2022/10/09 07:26:32;;;;;;;;;;;;;;;9.55;64.32;102066.00;5012346;28;20008;-77
2022/10/09 07:28:57;;;;;;;;;;;;;;;9.54;64.59;102064.31;5012478;28;19922;-77
2022/10/09 07:31:23;;;;;;;;;;;;;;;9.54;64.90;102057.38;5012263;28;20390;-77
2022/10/09 07:33:49;;;;;;;;;;;;;;;9.55;64.88;102053.91;5011348;28;19925;-77
2022/10/09 07:36:15;;;;;;;;;;;;;;;9.65;64.69;102058.28;5011847;28;20294;-76
2022/10/09 07:38:40;;;;;;;;;;;;;;;9.68;64.43;102055.69;5011264;28;19921;-77
2022/10/09 07:41:07;;;;;;;;;;;;;;;9.74;64.20;102049.66;5011441;28;19921;-77
2022/10/09 07:43:39;;;;;;;;;;;;;;;9.68;64.13;102054.81;5014769;28;20016;-77
2022/10/09 07:46:05;;;;;;;;;;;;;;;9.60;64.98;102047.00;5016401;28;19932;-77
2022/10/09 07:48:31;;;;;;;;;;;;;;;9.80;63.88;102049.69;4995633;28;19932;-77
2022/10/09 07:50:56;;;;;;;;;;;;;;;9.71;64.48;102050.53;5012319;28;19921;-77
2022/10/09 07:53:21;;;;;;;;;;;;;;;9.73;64.29;102051.38;5011970;28;19991;-77
2022/10/09 07:55:48;;;;;;;;;;;;;;;9.68;64.43;102042.72;5014705;28;19928;-77
2022/10/09 07:58:15;;;;;;;;;;;;;;;9.73;64.53;102046.19;5010416;28;19929;-77
2022/10/09 08:00:40;;;;;;;;;;;;;;;9.73;65.12;102041.00;5007127;28;19929;-77
2022/10/09 08:03:06;;;;;;;;;;;;;;;9.81;64.87;102044.47;5011839;28;19964;-77
2022/10/09 08:05:31;;;;;;;;;;;;;;;9.82;65.27;102040.16;5012442;28;20338;-77
2022/10/09 08:07:56;;;;;;;;;;;;;;;9.91;64.95;102042.81;5007665;28;20024;-77
2022/10/09 08:10:22;;;;;;;;;;;;;;;10.04;64.75;102044.56;5010862;28;19925;-76
2022/10/09 08:12:47;;;;;;;;;;;;;;;10.01;65.08;102038.50;5003565;28;19921;-77
2022/10/09 08:15:12;;;;;;;;;;;;;;;9.98;65.17;102035.91;5012958;28;19922;-77
2022/10/09 08:17:38;;;;;;;;;;;;;;;10.03;65.30;102039.38;5012099;28;19928;-77
2022/10/09 08:20:04;;;;;;;;;;;;;;;10.01;65.92;102038.50;5012121;28;20409;-77
2022/10/09 08:22:29;;;;;;;;;;;;;;;10.05;64.77;102032.47;5008714;28;19925;-77
2022/10/09 08:24:54;;;;;;;;;;;;;;;9.99;65.52;102038.47;5009363;28;19922;-77
2022/10/09 08:27:19;;;;;;;;;;;;;;;10.01;65.03;102031.59;5009402;28;19976;-77
2022/10/09 08:29:45;;;;;;;;;;;;;;;10.06;64.71;102027.25;5009627;28;19930;-77
2022/10/09 08:32:10;;;;;;;;;;;;;;;10.10;65.17;102023.81;5011643;28;19921;-77
2022/10/09 08:34:35;;;;;;;;;;;;;;;10.13;65.66;102022.94;5005603;28;19937;-77
2022/10/09 08:37:00;;;;;;;;;;;;;;;10.20;65.70;102016.88;5006925;28;20298;-77
2022/10/09 08:39:29;;;;;;;;;;;;;;;10.28;65.38;102012.56;5005091;28;19925;-77
2022/10/09 08:41:56;;;;;;;;;;;;;;;10.35;65.06;102009.94;5008030;28;19922;-77
2022/10/09 08:44:26;;;;;;;;;;;;;;;10.39;65.31;102016.03;5009006;28;19930;-77
2022/10/09 08:46:57;;;;;;;;;;;;;;;10.44;65.08;102014.28;5011910;28;19925;-73
2022/10/09 08:49:31;;;;;;;;;;;;;;;10.52;64.92;102007.38;5013418;28;20011;-77
2022/10/09 08:51:58;;;;;;;;;;;;;;;10.57;64.26;102009.94;5013579;28;20008;-76
2022/10/09 08:54:29;;;;;;;;;;;;;;;10.60;64.38;102007.34;5008569;28;20534;-77
2022/10/09 08:56:56;;;;;;;;;;;;;;;10.64;64.94;101999.53;5008938;28;19967;-77
2022/10/09 08:59:21;;;;;;;;;;;;;;;10.68;65.05;101998.66;5006553;28;19929;-77
2022/10/09 09:01:52;;;;;;;;;;;;;;;10.72;64.80;101999.53;5007011;28;20299;-77
2022/10/09 09:04:23;;;;;;;;;;;;;;;10.71;65.64;101990.00;5011379;28;20424;-77
2022/10/09 09:06:55;;;;;;;;;;;;;;;10.79;64.63;101983.06;5007781;28;20438;-77
2022/10/09 09:09:35;;;;;;;;;;;;;;;10.83;64.25;101980.44;5011390;28;19925;-77
2022/10/09 09:12:10;;;;;;;;;;;;;;;10.92;64.39;101980.41;5006488;28;19934;-77
2022/10/09 09:15:00;;;;;;;;;;;;;;;11.02;64.77;101986.44;5010685;28;19922;-77
2022/10/09 09:17:38;;;;;;;;;;;;;;;10.94;64.58;101980.38;5011134;28;19921;-77
2022/10/09 09:20:09;;;;;;;;;;;;;;;11.08;64.07;101973.44;5012129;28;19975;-77
2022/10/09 09:22:35;;;;;;;;;;;;;;;10.98;64.39;101972.59;4993531;28;19926;-77
2022/10/09 09:25:13;;;;;;;;;;;;;;;11.19;64.42;101978.56;4992977;28;19925;-77
2022/10/09 09:27:39;;;;;;;;;;;;;;;11.16;65.02;101963.84;5004773;28;19984;-77
2022/10/09 09:30:10;;;;;;;;;;;;;;;11.41;64.09;101962.88;5010722;28;20016;-77
2022/10/09 09:32:38;;;;;;;;;;;;;;;11.35;64.14;101957.75;5006880;28;19932;-77
2022/10/09 09:35:12;;;;;;;;;;;;;;;11.22;64.34;101955.16;5013045;28;20450;-76
2022/10/09 09:37:38;;;;;;;;;;;;;;;11.26;64.04;101959.47;5005827;28;19944;-77
2022/10/09 09:40:04;;;;;;;;;;;;;;;11.27;65.25;101955.97;4989472;28;20022;-77
2022/10/09 09:42:29;;;;;;;;;;;;;;;11.29;64.27;101951.69;5012750;28;20012;-77
2022/10/09 09:44:57;;;;;;;;;;;;;;;11.26;65.61;101949.06;5015084;28;20354;-77
2022/10/09 09:47:25;;;;;;;;;;;;;;;11.28;64.81;101940.41;5017536;28;19921;-76
2022/10/09 09:49:55;;;;;;;;;;;;;;;11.34;62.97;101942.13;5014059;28;25192;-76
2022/10/09 09:52:20;;;;;;;;;;;;;;;11.35;63.05;101936.94;4995056;28;19917;-77
2022/10/09 09:54:48;;;;;;;;;;;;;;;11.46;63.33;101935.13;5008680;28;20368;-77
2022/10/09 09:57:25;;;;;;;;;;;;;;;11.56;62.51;101928.97;5006476;28;19949;-77
2022/10/09 09:59:50;;;;;;;;;;;;;;;11.64;62.51;101920.25;5007110;28;19929;-77
2022/10/09 10:02:22;;;;;;;;;;;;;;;11.65;62.81;101911.56;5005366;28;20301;-77
2022/10/09 10:04:57;;;;;;;;;;;;;;;11.66;62.35;101905.47;5006940;28;19991;-76
2022/10/09 10:07:35;;;;;;;;;;;;;;;11.75;62.16;101908.00;5010069;28;20075;-77
2022/10/09 10:10:21;;;;;;;;;;;;;;;11.74;62.47;101909.75;5007341;28;19922;-77
2022/10/09 10:12:53;;;;;;;;;;;;;;;11.90;61.58;101902.69;5011381;28;19921;-77
2022/10/09 10:15:22;;;;;;;;;;;;;;;11.91;61.70;101900.09;5009954;28;20012;-77
2022/10/09 10:17:49;;;;;;;;;;;;;;;11.93;61.04;101897.44;5011499;28;19956;-74
2022/10/09 10:20:15;;;;;;;;;;;;;;;11.96;61.26;101876.59;5012064;28;19995;-77
2022/10/09 10:22:45;;;;;;;;;;;;;;;11.98;61.84;101882.63;5008254;28;19953;-77
2022/10/09 10:25:16;;;;;;;;;;;;;;;12.02;62.01;101881.75;5007026;28;19921;-77
2022/10/09 10:27:41;;;;;;;;;;;;;;;12.11;61.42;101876.44;5008295;28;19934;-77
2022/10/09 10:30:11;;;;;;;;;;;;;;;12.01;62.29;101875.66;5007488;28;20012;-77
2022/10/09 10:33:09;;;;;;;;;;;;;;;12.18;67.46;101874.66;5004110;28;19921;-77
2022/10/09 10:35:37;;;;;;;;;;;;;;;12.19;63.35;101868.53;4984818;28;20365;-77
2022/10/09 10:38:05;;;;;;;;;;;;;;;12.18;61.77;101861.63;5006661;28;20020;-77
2022/10/09 10:40:30;;;;;;;;;;;;;;;12.36;64.91;101854.50;5007702;28;19917;-77
2022/10/09 10:43:08;;;;;;;;;;;;;;;12.29;60.77;101846.75;4991027;28;19948;-77
2022/10/09 10:45:36;;;;;;;;;;;;;;;12.19;61.40;101845.09;5008237;28;19928;-77
2022/10/09 10:48:02;;;;;;;;;;;;;;;12.47;65.13;101849.16;4999726;28;19926;-77
2022/10/09 10:50:45;;;;;;;;;;;;;;;12.51;61.44;101836.03;5010660;28;19921;-77
2022/10/09 10:53:29;;;;;;;;;;;;;;;12.51;62.80;101841.25;4988657;28;19927;-77
2022/10/09 10:55:57;;;;;;;;;;;;;;;12.48;60.66;101830.88;5007583;28;19922;-77
2022/10/09 10:58:34;;;;;;;;;;;;;;;12.63;63.94;101832.50;5008655;28;20378;-77
2022/10/09 11:01:29;;;;;;;;;;;;;;;12.58;61.23;101816.88;5007415;28;19929;-78
2022/10/09 11:04:07;;;;;;;;;;;;;;;12.57;60.75;101814.31;5003355;28;19929;-77
2022/10/09 11:06:37;;;;;;;;;;;;;;;12.62;64.68;101821.19;5004763;28;19922;-77
2022/10/09 11:09:11;;;;;;;;;;;;;;;12.57;60.79;101809.09;5008144;28;19929;-77
2022/10/09 11:11:49;;;;;;;;;;;;;;;12.56;60.87;101807.38;5007675;28;19925;-77
2022/10/09 11:14:32;;;;;;;;;;;;;;;12.49;60.72;101797.84;4993558;28;19925;-77
2022/10/09 11:17:05;;;;;;;;;;;;;;;12.47;60.86;101792.69;5014580;28;19926;-77
2022/10/09 11:19:37;;;;;;;;;;;;;;;12.47;60.96;101794.41;5010793;28;20485;-79
2022/10/09 11:22:02;;;;;;;;;;;;;;;12.47;60.02;101784.88;4992024;28;19944;-78
2022/10/09 11:24:30;;;;;;;;;;;;;;;12.59;60.63;101781.28;4990121;28;20382;-78
2022/10/09 11:27:01;;;;;;;;;;;;;;;12.64;61.23;101780.31;5005899;28;19983;-78
2022/10/09 11:29:39;;;;;;;;;;;;;;;12.64;60.65;101775.09;5008018;28;19921;-78
2022/10/09 11:32:12;;;;;;;;;;;;;;;12.64;59.56;101764.69;5006213;28;19922;-77
2022/10/09 11:34:41;;;;;;;;;;;;;;;12.76;58.15;101762.78;5008867;28;19968;-78
2022/10/09 11:37:12;;;;;;;;;;;;;;;12.69;57.36;101754.16;5010220;28;20067;-77
2022/10/09 11:39:38;;;;;;;;;;;;;;;12.69;57.14;101754.16;5014511;28;20121;-77
2022/10/09 11:42:04;;;;;;;;;;;;;;;12.80;57.46;101748.81;5014141;28;19933;-76
2022/10/09 11:44:48;;;;;;;;;;;;;;;12.78;59.09;101748.84;5008804;28;20012;-73
2022/10/09 11:47:32;;;;;;;;;;;;;;;12.80;56.97;101741.00;5009709;28;19936;-74
2022/10/09 11:50:16;;;;;;;;;;;;;;;12.82;56.43;101736.63;5013243;28;19929;-74
2022/10/09 11:52:59;;;;;;;;;;;;;;;12.87;56.49;101729.59;5012124;28;19918;-74
2022/10/09 11:55:31;;;;;;;;;;;;;;;12.82;56.07;101723.56;5007962;28;19965;-74
2022/10/09 11:58:25;;;;;;;;;;;;;;;12.89;56.86;101720.88;5017055;28;19917;-74
2022/10/09 12:00:53;;;;;;;;;;;;;;;12.87;58.07;101721.78;4994787;28;19929;-74
2022/10/09 12:03:32;;;;;;;;;;;;;;;12.90;57.76;101712.16;5011575;28;19968;-74
2022/10/09 12:06:06;;;;;;;;;;;;;;;12.96;55.81;101711.19;5011971;28;19929;-74
2022/10/09 12:08:32;;;;;;;;;;;;;;;12.97;55.31;101698.13;5010597;28;19929;-74
2022/10/09 12:11:12;;;;;;;;;;;;;;;13.01;53.37;101697.22;5013859;28;20126;-73
2022/10/09 12:13:40;;;;;;;;;;;;;;;13.01;55.83;101694.59;5012225;28;19960;-74
2022/10/09 12:16:07;;;;;;;;;;;;;;;13.03;53.99;101679.78;5012562;28;19917;-73
2022/10/09 12:18:34;;;;;;;;;;;;;;;13.04;55.25;101683.25;5014508;28;19928;-73
2022/10/09 12:21:04;;;;;;;;;;;;;;;13.08;54.08;101679.69;5005888;28;19951;-74
2022/10/09 12:23:34;;;;;;;;;;;;;;;13.09;54.50;101676.19;5006539;28;19949;-73
2022/10/09 12:26:02;;;;;;;;;;;;;;;13.06;55.83;101671.03;5006549;28;20512;-74
2022/10/09 12:28:30;;;;;;;;;;;;;;;13.09;55.47;101673.59;4990182;28;19922;-74
2022/10/09 12:30:58;;;;;;;;;;;;;;;13.07;56.03;101664.94;5003759;28;19961;-74
2022/10/09 12:33:33;;;;;;;;;;;;;;;13.14;53.27;101656.97;5009086;28;19971;-74
2022/10/09 12:36:01;;;;;;;;;;;;;;;13.18;59.64;101663.88;5014651;28;20000;-74
2022/10/09 12:38:28;;;;;;;;;;;;;;;13.13;53.08;101652.66;5013267;28;20374;-74
2022/10/09 12:40:54;;;;;;;;;;;;;;;13.19;55.89;101649.91;5011875;28;19972;-74
2022/10/09 12:43:21;;;;;;;;;;;;;;;13.20;55.53;101653.38;5019388;28;19974;-74
2022/10/09 12:45:48;;;;;;;;;;;;;;;13.21;52.67;101642.94;5007097;28;19937;-74
2022/10/09 12:48:17;;;;;;;;;;;;;;;13.23;53.02;101641.16;5012499;28;20446;-74